createdAt,value
2018-07-08T00:00:47.725Z,99.90
2018-07-08T00:03:16.883Z,99.90
2018-07-08T00:05:46.314Z,99.90
2018-07-08T00:08:16.193Z,99.90
2018-07-08T00:10:54.510Z,99.90
2018-07-08T00:13:23.863Z,99.90
2018-07-08T00:15:53.165Z,99.90
2018-07-08T00:18:23.443Z,99.90
2018-07-08T00:20:53.564Z,99.90
2018-07-08T00:23:23.719Z,99.90
2018-07-08T00:25:53.006Z,99.90
2018-07-08T00:28:22.144Z,99.90
2018-07-08T00:30:51.412Z,99.90
2018-07-08T00:33:20.561Z,99.90
2018-07-08T00:35:49.747Z,99.90
2018-07-08T00:38:18.968Z,99.90
2018-07-08T00:40:48.150Z,99.90
2018-07-08T00:43:17.393Z,99.90
2018-07-08T00:45:46.540Z,99.90
2018-07-08T00:48:15.676Z,99.90
2018-07-08T00:50:44.833Z,99.90
2018-07-08T00:53:14.196Z,99.90
2018-07-08T00:55:43.320Z,99.90
2018-07-08T00:58:12.487Z,99.90
2018-07-08T01:00:41.684Z,99.90
2018-07-08T01:03:10.996Z,99.90
2018-07-08T01:05:40.136Z,99.90
2018-07-08T01:08:09.249Z,99.90
2018-07-08T01:10:38.455Z,99.90
2018-07-08T01:13:07.762Z,99.90
2018-07-08T01:15:37.085Z,99.90
2018-07-08T01:18:06.496Z,99.90
2018-07-08T01:20:35.667Z,99.90
2018-07-08T01:23:04.828Z,99.90
2018-07-08T01:25:45.258Z,99.90
2018-07-08T01:28:14.478Z,99.90
2018-07-08T01:30:43.665Z,99.90
2018-07-08T01:33:12.838Z,99.90
2018-07-08T01:35:41.987Z,99.90
2018-07-08T01:38:11.170Z,99.90
2018-07-08T01:40:40.419Z,99.90
2018-07-08T01:43:09.589Z,99.90
2018-07-08T01:45:38.715Z,99.90
2018-07-08T01:48:08.225Z,99.90
2018-07-08T01:50:37.388Z,99.90
2018-07-08T01:53:06.757Z,99.90
2018-07-08T01:55:35.925Z,99.90
2018-07-08T01:58:05.193Z,99.90
2018-07-08T02:00:34.493Z,99.90
2018-07-08T02:03:03.693Z,99.90
2018-07-08T02:05:32.840Z,99.90
2018-07-08T02:08:02.067Z,99.90
2018-07-08T02:10:31.393Z,99.90
2018-07-08T02:13:00.749Z,99.90
2018-07-08T02:15:30.043Z,99.90
2018-07-08T02:17:59.356Z,99.90
2018-07-08T02:20:34.948Z,99.90
2018-07-08T02:23:04.382Z,99.90
2018-07-08T02:25:33.529Z,99.90
2018-07-08T02:28:02.877Z,99.90
2018-07-08T02:30:32.081Z,99.90
2018-07-08T02:33:01.363Z,99.90
2018-07-08T02:35:30.466Z,99.90
2018-07-08T02:37:59.813Z,99.90
2018-07-08T02:40:28.973Z,99.90
2018-07-08T02:42:58.253Z,99.90
2018-07-08T02:45:27.442Z,99.90
2018-07-08T02:47:56.742Z,99.90
2018-07-08T02:50:25.941Z,99.90
2018-07-08T02:52:55.166Z,99.90
2018-07-08T02:55:24.469Z,99.90
2018-07-08T02:57:53.732Z,99.90
2018-07-08T03:00:24.017Z,99.90
2018-07-08T03:02:53.166Z,99.90
2018-07-08T03:05:22.279Z,99.90
2018-07-08T03:07:51.505Z,99.90
2018-07-08T03:10:20.682Z,99.90
2018-07-08T03:12:49.897Z,99.90
2018-07-08T03:15:19.097Z,99.90
2018-07-08T03:17:48.457Z,99.90
2018-07-08T03:20:17.599Z,99.90
2018-07-08T03:22:46.808Z,99.90
2018-07-08T03:25:16.006Z,99.90
2018-07-08T03:27:45.155Z,99.90
2018-07-08T03:30:14.395Z,99.90
2018-07-08T03:32:43.577Z,99.90
2018-07-08T03:35:12.824Z,99.90
2018-07-08T03:37:41.981Z,99.90
2018-07-08T03:40:11.286Z,99.90
2018-07-08T03:42:40.499Z,99.90
2018-07-08T03:45:09.731Z,99.90
2018-07-08T03:47:38.905Z,99.90
2018-07-08T03:50:08.327Z,99.90
2018-07-08T03:52:37.638Z,99.90
2018-07-08T03:55:06.912Z,99.90
2018-07-08T03:57:36.109Z,99.90
2018-07-08T04:00:05.400Z,99.90
2018-07-08T04:02:34.578Z,99.90
2018-07-08T04:05:03.766Z,99.90
2018-07-08T04:07:33.014Z,99.90
2018-07-08T04:10:02.272Z,99.90
2018-07-08T04:12:31.557Z,99.90
2018-07-08T04:15:00.930Z,99.90
2018-07-08T04:17:30.239Z,99.90
2018-07-08T04:19:59.539Z,99.90
2018-07-08T04:22:28.697Z,99.90
2018-07-08T04:24:57.990Z,99.90
2018-07-08T04:27:27.097Z,99.90
2018-07-08T04:29:56.377Z,99.90
2018-07-08T04:32:25.496Z,99.90
2018-07-08T04:34:54.686Z,99.90
2018-07-08T04:37:23.810Z,99.90
2018-07-08T04:39:52.980Z,99.90
2018-07-08T04:42:22.203Z,99.90
2018-07-08T04:44:51.407Z,99.90
2018-07-08T04:47:20.632Z,99.90
2018-07-08T04:49:49.847Z,99.90
2018-07-08T04:52:19.147Z,99.90
2018-07-08T04:54:48.397Z,99.90
2018-07-08T04:57:17.550Z,99.90
2018-07-08T04:59:46.764Z,99.90
2018-07-08T05:02:16.013Z,99.90
2018-07-08T05:04:45.224Z,99.90
2018-07-08T05:07:14.389Z,99.90
2018-07-08T05:09:43.665Z,99.90
2018-07-08T05:12:12.903Z,99.90
2018-07-08T05:14:42.096Z,99.90
2018-07-08T05:17:11.552Z,99.90
2018-07-08T05:19:40.934Z,99.90
2018-07-08T05:22:10.290Z,99.90
2018-07-08T05:24:39.526Z,99.90
2018-07-08T05:27:08.737Z,99.90
2018-07-08T05:29:38.055Z,99.90
2018-07-08T05:32:07.309Z,99.90
2018-07-08T05:34:36.568Z,99.90
2018-07-08T05:37:06.607Z,99.90
2018-07-08T05:39:35.913Z,99.90
2018-07-08T05:42:05.549Z,99.90
2018-07-08T05:44:34.902Z,99.90
2018-07-08T05:47:04.069Z,99.90
2018-07-08T05:49:33.221Z,99.90
2018-07-08T05:52:02.540Z,99.90
2018-07-08T05:54:31.796Z,99.90
2018-07-08T05:57:01.320Z,99.90
2018-07-08T05:59:30.474Z,99.90
2018-07-08T06:01:59.633Z,99.90
2018-07-08T06:04:28.770Z,99.90
2018-07-08T06:06:58.035Z,99.90
2018-07-08T06:09:27.202Z,99.90
2018-07-08T06:11:56.481Z,99.90
2018-07-08T06:14:25.834Z,99.90
2018-07-08T06:16:55.025Z,99.90
2018-07-08T06:19:24.180Z,99.90
2018-07-08T06:21:56.262Z,99.90
2018-07-08T06:24:25.560Z,99.90
2018-07-08T06:26:54.810Z,99.90
2018-07-08T06:29:24.098Z,99.90
2018-07-08T06:31:53.281Z,99.90
2018-07-08T06:34:22.407Z,99.90
2018-07-08T06:36:51.605Z,99.90
2018-07-08T06:39:20.793Z,99.90
2018-07-08T06:41:50.036Z,99.90
2018-07-08T06:44:19.249Z,99.90
2018-07-08T06:46:48.640Z,99.90
2018-07-08T06:49:17.895Z,99.90
2018-07-08T06:51:47.094Z,99.90
2018-07-08T06:54:16.457Z,99.90
2018-07-08T06:56:45.657Z,99.90
2018-07-08T06:59:15.026Z,99.90
2018-07-08T07:01:44.485Z,99.90
2018-07-08T07:04:13.883Z,99.90
2018-07-08T07:06:43.220Z,99.90
2018-07-08T07:09:12.482Z,99.90
2018-07-08T07:11:51.061Z,99.90
2018-07-08T07:14:20.405Z,99.90
2018-07-08T07:16:49.832Z,99.90
2018-07-08T07:19:19.213Z,99.90
2018-07-08T07:21:48.833Z,99.90
2018-07-08T07:26:47.102Z,99.90
2018-07-08T07:29:16.456Z,99.90
2018-07-08T07:31:45.933Z,99.90
2018-07-08T07:34:16.320Z,99.90
2018-07-08T07:36:45.777Z,99.90
2018-07-08T07:41:44.111Z,99.90
2018-07-08T07:44:13.560Z,99.90
2018-07-08T07:49:11.889Z,99.90
2018-07-08T07:51:41.325Z,99.90
2018-07-08T07:54:10.795Z,99.90
2018-07-08T07:56:40.677Z,99.90
2018-07-08T08:01:39.126Z,99.90
2018-07-08T08:04:08.692Z,99.90
2018-07-08T08:09:07.512Z,99.90
2018-07-08T08:11:37.095Z,99.90
2018-07-08T08:14:06.816Z,99.90
2018-07-08T08:16:36.270Z,99.90
2018-07-08T08:19:05.700Z,99.90
2018-07-08T08:21:35.018Z,99.90
2018-07-08T08:24:04.464Z,99.90
2018-07-08T08:26:34.055Z,99.90
2018-07-08T08:29:03.382Z,99.90
2018-07-08T08:31:32.780Z,99.90
2018-07-08T08:35:10.690Z,99.90
2018-07-08T08:37:41.193Z,99.90
2018-07-08T08:42:40.219Z,99.90
2018-07-08T08:45:10.582Z,99.90
2018-07-08T08:47:40.248Z,99.90
2018-07-08T08:50:10.178Z,99.90
2018-07-08T08:55:09.301Z,99.90
2018-07-08T08:57:38.770Z,99.90
2018-07-08T09:00:09.398Z,99.90
2018-07-08T09:02:38.813Z,99.90
2018-07-08T09:07:37.470Z,99.90
2018-07-08T09:10:06.895Z,99.90
2018-07-08T09:12:36.320Z,99.90
2018-07-08T09:15:06.152Z,99.90
2018-07-08T09:17:35.670Z,99.90
2018-07-08T09:20:05.435Z,99.90
2018-07-08T09:22:34.708Z,99.90
2018-07-08T09:25:04.109Z,99.90
2018-07-08T09:27:33.431Z,99.90
2018-07-08T09:30:02.925Z,99.90
2018-07-08T09:32:32.149Z,99.90
2018-07-08T09:37:30.397Z,99.90
2018-07-08T09:39:59.766Z,99.90
2018-07-08T09:42:29.121Z,99.90
2018-07-08T09:44:58.402Z,99.90
2018-07-08T09:47:27.766Z,99.90
2018-07-08T09:52:26.115Z,99.90
2018-07-08T09:54:55.567Z,99.90
2018-07-08T09:59:54.293Z,99.90
2018-07-08T10:02:28.408Z,99.90
2018-07-08T10:04:58.118Z,99.90
2018-07-08T10:07:29.375Z,99.90
2018-07-08T10:10:02.116Z,99.90
2018-07-08T10:12:35.741Z,99.90
2018-07-08T10:15:05.431Z,99.90
2018-07-08T10:17:35.430Z,99.90
2018-07-08T10:20:06.019Z,99.90
2018-07-08T10:22:35.344Z,99.90
2018-07-08T10:25:04.949Z,99.90
2018-07-08T10:28:37.457Z,99.90
2018-07-08T10:31:11.571Z,99.90
2018-07-08T10:33:57.425Z,99.90
2018-07-08T10:36:26.987Z,99.90
2018-07-08T10:41:25.410Z,99.90
2018-07-08T10:43:54.813Z,99.90
2018-07-08T10:46:24.308Z,99.90
2018-07-08T10:51:23.004Z,99.90
2018-07-08T10:56:21.369Z,99.90
2018-07-08T10:58:50.815Z,99.90
2018-07-08T11:01:20.273Z,99.90
2018-07-08T11:03:50.042Z,99.90
2018-07-08T11:06:20.147Z,99.90
2018-07-08T11:08:49.726Z,99.90
2018-07-08T11:11:19.357Z,99.90
2018-07-08T11:13:49.265Z,99.90
2018-07-08T11:18:48.070Z,99.90
2018-07-08T11:23:46.751Z,99.90
2018-07-08T11:26:16.205Z,99.90
2018-07-08T11:28:46.088Z,99.90
2018-07-08T11:31:15.583Z,99.90
2018-07-08T11:33:45.468Z,99.90
2018-07-08T11:36:15.248Z,99.90
2018-07-08T11:38:44.957Z,99.90
2018-07-08T11:41:14.962Z,99.90
2018-07-08T11:43:44.743Z,99.90
2018-07-08T11:46:14.820Z,99.90
2018-07-08T11:48:44.409Z,99.90
2018-07-08T11:53:45.993Z,99.90
2018-07-08T11:56:15.803Z,99.90
2018-07-08T11:58:45.528Z,99.90
2018-07-08T12:01:15.125Z,99.90
2018-07-08T12:03:45.572Z,99.90
2018-07-08T12:06:15.233Z,99.90
2018-07-08T12:08:45.832Z,99.90
2018-07-08T12:11:15.494Z,99.90
2018-07-08T12:13:45.126Z,99.90
2018-07-08T12:16:14.681Z,99.90
2018-07-08T12:18:45.127Z,99.90
2018-07-08T12:23:45.841Z,99.90
2018-07-08T12:26:15.628Z,99.90
2018-07-08T12:28:45.326Z,99.90
2018-07-08T12:31:14.992Z,99.90
2018-07-08T12:33:45.400Z,99.90
2018-07-08T12:36:16.864Z,99.90
2018-07-08T12:38:46.965Z,99.90
2018-07-08T12:41:16.324Z,99.90
2018-07-08T12:43:46.198Z,99.90
2018-07-08T12:46:15.629Z,99.90
2018-07-08T12:48:45.461Z,99.90
2018-07-08T12:51:14.998Z,99.90
2018-07-08T12:53:44.563Z,99.90
2018-07-08T12:56:16.833Z,99.90
2018-07-08T12:58:46.835Z,99.90
2018-07-08T13:01:17.107Z,99.90
2018-07-08T13:06:17.791Z,99.90
2018-07-08T13:08:47.812Z,99.90
2018-07-08T13:11:17.465Z,99.90
2018-07-08T13:13:46.991Z,99.90
2018-07-08T13:16:17.726Z,99.90
2018-07-08T13:18:47.964Z,99.90
2018-07-08T13:21:18.590Z,99.90
2018-07-08T13:23:48.957Z,99.90
2018-07-08T13:26:18.661Z,99.90
2018-07-08T13:28:48.467Z,99.90
2018-07-08T13:31:18.187Z,99.90
2018-07-08T13:33:47.862Z,99.90
2018-07-08T13:36:17.571Z,99.90
2018-07-08T13:38:47.561Z,99.90
2018-07-08T13:41:17.468Z,99.90
2018-07-08T13:43:47.470Z,99.90
2018-07-08T13:46:17.666Z,99.90
2018-07-08T13:48:47.543Z,99.90
2018-07-08T13:51:17.182Z,99.90
2018-07-08T13:53:47.671Z,99.90
2018-07-08T13:56:18.208Z,99.90
2018-07-08T13:58:47.852Z,99.90
2018-07-08T14:01:18.028Z,99.90
2018-07-08T14:03:47.704Z,99.90
2018-07-08T14:06:17.867Z,99.90
2018-07-08T14:08:47.609Z,99.90
2018-07-08T14:11:17.816Z,99.90
2018-07-08T14:13:47.340Z,99.90
2018-07-08T14:16:17.930Z,99.90
2018-07-08T14:21:16.760Z,99.90
2018-07-08T14:23:48.347Z,99.90
2018-07-08T14:26:18.150Z,99.90
2018-07-08T14:28:47.663Z,99.90
2018-07-08T14:31:17.590Z,99.90
2018-07-08T14:33:47.227Z,99.90
2018-07-08T14:41:16.822Z,99.90
2018-07-08T14:43:47.713Z,99.90
2018-07-08T14:48:46.685Z,99.90
2018-07-08T14:51:16.236Z,99.90
2018-07-08T14:56:14.979Z,99.90
2018-07-08T14:58:45.200Z,99.90
2018-07-08T15:01:15.133Z,99.90
2018-07-08T15:03:45.298Z,99.90
2018-07-08T15:06:14.809Z,99.90
2018-07-08T15:11:13.154Z,99.90
2018-07-08T15:13:42.646Z,99.90
2018-07-08T15:16:12.153Z,99.90
2018-07-08T15:18:41.528Z,99.90
2018-07-08T15:21:11.744Z,98.70
2018-07-08T15:23:42.102Z,98.70
2018-07-08T15:26:11.565Z,99.80
2018-07-08T15:28:41.215Z,99.60
2018-07-08T15:31:11.056Z,98.80
2018-07-08T15:33:45.813Z,97.80
2018-07-08T15:36:20.003Z,97.70
2018-07-08T15:38:49.449Z,98.60
2018-07-08T15:41:19.223Z,98.60
2018-07-08T15:43:49.214Z,98.10
2018-07-08T15:46:19.107Z,99.20
2018-07-08T15:48:48.595Z,99.30
2018-07-08T15:51:17.954Z,97.80
2018-07-08T15:53:53.876Z,98.20
2018-07-08T15:56:23.310Z,97.10
2018-07-08T15:58:53.584Z,96.80
2018-07-08T16:01:23.371Z,96.90
2018-07-08T16:03:53.212Z,96.00
2018-07-08T16:06:22.923Z,96.10
2018-07-08T16:08:52.662Z,95.40
2018-07-08T16:11:22.343Z,94.60
2018-07-08T16:13:52.074Z,94.80
2018-07-08T16:16:21.696Z,95.20
2018-07-08T16:18:51.240Z,95.50
2018-07-08T16:21:21.162Z,95.30
2018-07-08T16:23:52.025Z,95.50
2018-07-08T16:26:21.627Z,95.60
2018-07-08T16:28:51.989Z,94.50
2018-07-08T16:31:21.865Z,96.70
2018-07-08T16:33:51.285Z,94.80
2018-07-08T16:36:20.655Z,95.20
2018-07-08T16:38:50.145Z,95.10
2018-07-08T16:41:19.560Z,94.40
2018-07-08T16:43:48.970Z,93.80
2018-07-08T16:46:19.478Z,93.80
2018-07-08T16:48:49.377Z,94.50
2018-07-08T16:51:19.005Z,93.40
2018-07-08T16:53:48.530Z,93.40
2018-07-08T16:56:17.978Z,93.80
2018-07-08T16:58:47.378Z,93.50
2018-07-08T17:01:16.994Z,93.40
2018-07-08T17:03:47.153Z,94.00
2018-07-08T17:06:16.476Z,93.10
2018-07-08T17:08:49.808Z,93.10
2018-07-08T17:11:19.276Z,92.60
2018-07-08T17:13:48.719Z,92.80
2018-07-08T17:16:18.237Z,93.60
2018-07-08T17:18:49.077Z,92.90
2018-07-08T17:21:19.321Z,93.50
2018-07-08T17:23:49.644Z,93.10
2018-07-08T17:26:19.028Z,93.20
2018-07-08T17:28:48.688Z,92.60
2018-07-08T17:31:18.502Z,92.80
2018-07-08T17:33:48.001Z,93.30
2018-07-08T17:36:17.974Z,93.70
2018-07-08T17:38:47.254Z,93.10
2018-07-08T17:41:17.034Z,93.00
2018-07-08T17:43:46.549Z,92.50
2018-07-08T17:46:16.058Z,92.90
2018-07-08T17:48:45.698Z,93.20
2018-07-08T17:51:14.996Z,93.10
2018-07-08T17:53:44.403Z,93.10
2018-07-08T17:56:14.140Z,92.70
2018-07-08T17:58:43.569Z,93.00
2018-07-08T18:01:13.079Z,93.40
2018-07-08T18:03:42.474Z,93.20
2018-07-08T18:06:11.985Z,93.80
2018-07-08T18:08:41.297Z,93.40
2018-07-08T18:11:10.735Z,93.90
2018-07-08T18:13:40.065Z,93.80
2018-07-08T18:16:09.318Z,94.00
2018-07-08T18:18:38.663Z,93.40
2018-07-08T18:21:08.241Z,93.70
2018-07-08T18:23:37.544Z,94.20
2018-07-08T18:26:07.023Z,93.70
2018-07-08T18:28:36.435Z,94.00
2018-07-08T18:31:05.953Z,94.50
2018-07-08T18:33:35.293Z,94.90
2018-07-08T18:36:05.033Z,95.40
2018-07-08T18:38:34.445Z,95.30
2018-07-08T18:41:04.142Z,95.40
2018-07-08T18:43:33.514Z,95.30
2018-07-08T18:46:03.098Z,95.20
2018-07-08T18:48:32.378Z,95.80
2018-07-08T18:51:01.766Z,96.00
2018-07-08T18:53:31.216Z,95.90
2018-07-08T18:56:00.654Z,96.50
2018-07-08T18:58:29.951Z,97.60
2018-07-08T19:00:59.276Z,97.90
2018-07-08T19:03:28.622Z,98.60
2018-07-08T19:05:58.027Z,99.10
2018-07-08T19:08:27.499Z,99.60
2018-07-08T19:10:56.949Z,99.90
2018-07-08T19:13:26.273Z,99.90
2018-07-08T19:15:55.818Z,99.90
2018-07-08T19:18:25.074Z,99.90
2018-07-08T19:20:54.504Z,99.90
2018-07-08T19:23:23.864Z,99.90
2018-07-08T19:25:53.544Z,99.90
2018-07-08T19:28:22.818Z,99.90
2018-07-08T19:30:52.113Z,99.90
2018-07-08T19:33:21.732Z,99.90
2018-07-08T19:35:51.186Z,99.90
2018-07-08T19:38:20.543Z,99.90
2018-07-08T19:40:49.984Z,99.90
2018-07-08T19:43:19.340Z,99.90
2018-07-08T19:45:48.793Z,99.90
2018-07-08T19:48:18.165Z,99.90
2018-07-08T19:50:53.993Z,99.90
2018-07-08T19:53:23.317Z,99.90
2018-07-08T19:55:52.711Z,99.90
2018-07-08T19:58:22.200Z,99.90
2018-07-08T20:00:51.549Z,99.90
2018-07-08T20:03:20.941Z,99.90
2018-07-08T20:05:50.500Z,99.90
2018-07-08T20:08:19.775Z,99.90
2018-07-08T20:10:49.028Z,99.90
2018-07-08T20:13:18.644Z,99.90
2018-07-08T20:15:48.154Z,99.90
2018-07-08T20:18:17.414Z,99.90
2018-07-08T20:20:46.722Z,99.90
2018-07-08T20:23:16.038Z,99.90
2018-07-08T20:25:45.455Z,99.90
2018-07-08T20:28:15.839Z,99.90
2018-07-08T20:30:45.638Z,99.90
2018-07-08T20:33:14.965Z,99.90
2018-07-08T20:35:44.371Z,99.90
2018-07-08T20:38:13.631Z,99.90
2018-07-08T20:40:42.933Z,99.90
2018-07-08T20:43:12.400Z,99.90
2018-07-08T20:45:42.685Z,99.90
2018-07-08T20:48:11.978Z,99.90
2018-07-08T20:50:41.301Z,99.90
2018-07-08T20:53:10.669Z,99.90
2018-07-08T20:55:39.994Z,99.90
2018-07-08T20:58:09.366Z,99.90
2018-07-08T21:00:38.752Z,99.90
2018-07-08T21:03:08.012Z,99.90
2018-07-08T21:05:37.544Z,99.90
2018-07-08T21:08:06.850Z,99.90
2018-07-08T21:10:36.384Z,99.90
2018-07-08T21:13:06.407Z,99.90
2018-07-08T21:15:36.033Z,99.90
2018-07-08T21:18:05.461Z,99.90
2018-07-08T21:20:34.778Z,99.90
2018-07-08T21:23:04.199Z,99.90
2018-07-08T21:25:33.571Z,99.90
2018-07-08T21:28:03.053Z,99.90
2018-07-08T21:30:32.413Z,99.90
2018-07-08T21:33:01.904Z,99.90
2018-07-08T21:35:31.301Z,99.90
2018-07-08T21:38:01.162Z,99.90
2018-07-08T21:40:30.488Z,99.90
2018-07-08T21:42:59.837Z,99.90
2018-07-08T21:45:29.224Z,99.90
2018-07-08T21:47:58.547Z,99.90
2018-07-08T21:50:27.890Z,99.90
2018-07-08T21:52:57.201Z,99.90
2018-07-08T21:55:26.506Z,99.90
2018-07-08T21:57:55.790Z,99.90
2018-07-08T22:00:30.520Z,99.90
2018-07-08T22:03:00.198Z,99.90
2018-07-08T22:05:30.963Z,99.90
2018-07-08T22:08:03.838Z,99.90
2018-07-08T22:10:33.554Z,99.90
2018-07-08T22:13:03.722Z,99.90
2018-07-08T22:15:33.082Z,99.90
2018-07-08T22:18:02.390Z,99.90
2018-07-08T22:20:31.737Z,99.90
2018-07-08T22:23:01.153Z,99.90
2018-07-08T22:25:30.755Z,99.90
2018-07-08T22:28:00.193Z,99.90
2018-07-08T22:30:29.759Z,99.90
2018-07-08T22:32:59.140Z,99.90
2018-07-08T22:35:28.522Z,99.90
2018-07-08T22:37:57.913Z,99.90
2018-07-08T22:40:27.213Z,99.90
2018-07-08T22:42:56.555Z,99.90
2018-07-08T22:45:25.939Z,99.90
2018-07-08T22:47:55.266Z,99.90
2018-07-08T22:50:24.743Z,99.90
2018-07-08T22:52:54.066Z,99.90
2018-07-08T22:55:23.466Z,99.90
2018-07-08T22:57:52.780Z,99.90
2018-07-08T23:00:33.315Z,99.90
2018-07-08T23:04:06.782Z,99.90
2018-07-08T23:06:36.244Z,99.90
2018-07-08T23:09:06.314Z,99.90
2018-07-08T23:11:35.665Z,99.90
2018-07-08T23:14:05.098Z,99.90
2018-07-08T23:16:34.508Z,99.90
2018-07-08T23:19:03.902Z,99.90
2018-07-08T23:21:33.342Z,99.90
2018-07-08T23:24:02.614Z,99.90
2018-07-08T23:26:31.938Z,99.90
2018-07-08T23:29:01.280Z,99.90
2018-07-08T23:31:30.617Z,99.90
2018-07-08T23:34:00.125Z,99.90
2018-07-08T23:36:29.495Z,99.90
2018-07-08T23:38:58.833Z,99.90
2018-07-08T23:41:28.304Z,99.90
2018-07-08T23:43:57.573Z,99.90
2018-07-08T23:46:26.877Z,99.90
2018-07-08T23:48:56.242Z,99.90
2018-07-08T23:51:25.630Z,99.90
2018-07-08T23:53:55.070Z,99.90
2018-07-08T23:56:24.546Z,99.90
2018-07-08T23:58:53.941Z,99.90
